sensor_id;sensor_type;location;lat;lon;timestamp;noise_LAeq;noise_LA_min;noise_LA_max;noise_LA01;noise_LA95
76382;Laerm;65202;52.520;10.528;2023-06-10T00:02:23;40.84;33.46;56.87;;
76382;Laerm;65202;52.520;10.528;2023-06-10T00:04:53;40.99;33.78;58.38;;
76382;Laerm;65202;52.520;10.528;2023-06-10T00:07:21;40.47;33.64;53.44;;
76382;Laerm;65202;52.520;10.528;2023-06-10T00:09:48;40.97;33.68;57.04;;
76382;Laerm;65202;52.520;10.528;2023-06-10T00:12:15;41.16;33.90;60.28;;
76382;Laerm;65202;52.520;10.528;2023-06-10T00:14:44;40.71;33.77;55.17;;
76382;Laerm;65202;52.520;10.528;2023-06-10T00:17:11;40.79;33.30;52.65;;
76382;Laerm;65202;52.520;10.528;2023-06-10T00:19:38;40.49;33.33;52.85;;
76382;Laerm;65202;52.520;10.528;2023-06-10T00:22:09;40.28;33.22;53.43;;
76382;Laerm;65202;52.520;10.528;2023-06-10T00:24:39;40.56;33.08;53.91;;
76382;Laerm;65202;52.520;10.528;2023-06-10T00:27:07;41.17;32.89;55.19;;
76382;Laerm;65202;52.520;10.528;2023-06-10T00:29:34;40.64;33.16;55.71;;
76382;Laerm;65202;52.520;10.528;2023-06-10T00:32:02;40.42;32.73;54.27;;
76382;Laerm;65202;52.520;10.528;2023-06-10T00:34:30;40.85;32.84;55.76;;
76382;Laerm;65202;52.520;10.528;2023-06-10T00:36:58;40.68;33.07;54.39;;
76382;Laerm;65202;52.520;10.528;2023-06-10T00:39:25;41.00;33.12;56.38;;
76382;Laerm;65202;52.520;10.528;2023-06-10T00:41:52;40.29;32.74;54.29;;
76382;Laerm;65202;52.520;10.528;2023-06-10T00:44:19;41.20;32.97;63.04;;
76382;Laerm;65202;52.520;10.528;2023-06-10T00:46:47;40.33;32.51;52.72;;
76382;Laerm;65202;52.520;10.528;2023-06-10T00:49:14;39.97;32.70;53.36;;
76382;Laerm;65202;52.520;10.528;2023-06-10T00:51:42;40.09;32.43;53.46;;
76382;Laerm;65202;52.520;10.528;2023-06-10T00:54:09;39.97;32.75;54.10;;
76382;Laerm;65202;52.520;10.528;2023-06-10T00:56:41;40.47;32.46;55.16;;
76382;Laerm;65202;52.520;10.528;2023-06-10T00:59:10;40.29;32.35;56.31;;
76382;Laerm;65202;52.520;10.528;2023-06-10T01:01:37;39.94;32.95;53.18;;
76382;Laerm;65202;52.520;10.528;2023-06-10T01:04:05;39.78;32.77;54.04;;
76382;Laerm;65202;52.520;10.528;2023-06-10T01:06:48;39.68;32.74;53.90;;
76382;Laerm;65202;52.520;10.528;2023-06-10T01:09:42;39.09;32.71;53.58;;
76382;Laerm;65202;52.520;10.528;2023-06-10T01:12:43;38.61;32.68;53.55;;
76382;Laerm;65202;52.520;10.528;2023-06-10T01:15:17;39.31;32.86;52.39;;
76382;Laerm;65202;52.520;10.528;2023-06-10T01:17:59;39.52;33.30;53.70;;
76382;Laerm;65202;52.520;10.528;2023-06-10T01:20:31;48.83;32.79;70.31;;
76382;Laerm;65202;52.520;10.528;2023-06-10T01:23:00;39.51;32.73;54.64;;
76382;Laerm;65202;52.520;10.528;2023-06-10T01:25:30;40.21;32.78;66.19;;
76382;Laerm;65202;52.520;10.528;2023-06-10T01:28:13;39.49;33.03;53.28;;
76382;Laerm;65202;52.520;10.528;2023-06-10T01:33:39;39.41;32.97;54.22;;
76382;Laerm;65202;52.520;10.528;2023-06-10T01:36:09;39.63;32.51;53.33;;
76382;Laerm;65202;52.520;10.528;2023-06-10T01:38:44;39.41;32.83;52.42;;
76382;Laerm;65202;52.520;10.528;2023-06-10T01:41:14;39.55;32.78;54.55;;
76382;Laerm;65202;52.520;10.528;2023-06-10T01:43:45;39.63;32.73;54.41;;
76382;Laerm;65202;52.520;10.528;2023-06-10T01:46:13;40.05;33.16;55.22;;
76382;Laerm;65202;52.520;10.528;2023-06-10T01:48:43;46.84;32.97;64.48;;
76382;Laerm;65202;52.520;10.528;2023-06-10T01:51:10;53.24;33.51;72.53;;
76382;Laerm;65202;52.520;10.528;2023-06-10T01:53:38;55.24;34.51;72.73;;
76382;Laerm;65202;52.520;10.528;2023-06-10T01:56:05;56.29;33.84;73.85;;
76382;Laerm;65202;52.520;10.528;2023-06-10T01:58:32;53.87;33.79;72.81;;
76382;Laerm;65202;52.520;10.528;2023-06-10T02:00:59;49.83;34.41;65.18;;
76382;Laerm;65202;52.520;10.528;2023-06-10T02:03:27;52.12;34.30;67.63;;
76382;Laerm;65202;52.520;10.528;2023-06-10T02:05:54;50.94;33.74;68.20;;
76382;Laerm;65202;52.520;10.528;2023-06-10T02:08:21;46.00;33.76;65.50;;
76382;Laerm;65202;52.520;10.528;2023-06-10T02:10:49;51.78;34.33;65.75;;
76382;Laerm;65202;52.520;10.528;2023-06-10T02:13:16;53.82;33.76;69.81;;
76382;Laerm;65202;52.520;10.528;2023-06-10T02:15:43;48.13;34.25;66.29;;
76382;Laerm;65202;52.520;10.528;2023-06-10T02:18:10;51.16;33.85;67.91;;
76382;Laerm;65202;52.520;10.528;2023-06-10T02:20:39;50.90;34.55;68.69;;
76382;Laerm;65202;52.520;10.528;2023-06-10T02:23:06;49.75;34.58;64.42;;
76382;Laerm;65202;52.520;10.528;2023-06-10T02:25:33;50.93;34.11;69.94;;
76382;Laerm;65202;52.520;10.528;2023-06-10T02:28:00;48.95;34.39;62.51;;
76382;Laerm;65202;52.520;10.528;2023-06-10T02:30:30;48.95;34.59;62.40;;
76382;Laerm;65202;52.520;10.528;2023-06-10T02:32:57;52.04;34.34;72.45;;
76382;Laerm;65202;52.520;10.528;2023-06-10T02:35:26;52.17;33.89;71.02;;
76382;Laerm;65202;52.520;10.528;2023-06-10T02:37:53;51.75;34.70;65.88;;
76382;Laerm;65202;52.520;10.528;2023-06-10T02:40:20;50.55;34.09;63.38;;
76382;Laerm;65202;52.520;10.528;2023-06-10T02:42:48;50.87;34.53;65.84;;
76382;Laerm;65202;52.520;10.528;2023-06-10T02:45:15;50.03;34.54;63.40;;
76382;Laerm;65202;52.520;10.528;2023-06-10T02:47:42;50.28;35.38;64.35;;
76382;Laerm;65202;52.520;10.528;2023-06-10T02:50:10;50.86;34.76;67.02;;
76382;Laerm;65202;52.520;10.528;2023-06-10T02:52:37;45.53;34.57;61.01;;
76382;Laerm;65202;52.520;10.528;2023-06-10T02:55:05;50.13;35.04;65.19;;
76382;Laerm;65202;52.520;10.528;2023-06-10T02:57:33;50.74;35.77;64.35;;
76382;Laerm;65202;52.520;10.528;2023-06-10T03:00:00;49.51;35.22;63.61;;
76382;Laerm;65202;52.520;10.528;2023-06-10T03:02:29;51.34;34.97;64.28;;
76382;Laerm;65202;52.520;10.528;2023-06-10T03:04:57;50.81;35.06;64.57;;
76382;Laerm;65202;52.520;10.528;2023-06-10T03:07:24;51.85;35.95;64.39;;
76382;Laerm;65202;52.520;10.528;2023-06-10T03:09:53;48.17;35.22;63.54;;
76382;Laerm;65202;52.520;10.528;2023-06-10T03:12:20;44.49;34.90;61.50;;
76382;Laerm;65202;52.520;10.528;2023-06-10T03:14:47;48.59;34.94;64.73;;
76382;Laerm;65202;52.520;10.528;2023-06-10T03:17:14;49.23;34.78;65.71;;
76382;Laerm;65202;52.520;10.528;2023-06-10T03:19:42;49.02;34.89;64.24;;
76382;Laerm;65202;52.520;10.528;2023-06-10T03:22:14;49.99;34.62;66.45;;
76382;Laerm;65202;52.520;10.528;2023-06-10T03:24:42;48.30;34.31;64.24;;
76382;Laerm;65202;52.520;10.528;2023-06-10T03:27:10;43.05;34.50;59.99;;
76382;Laerm;65202;52.520;10.528;2023-06-10T03:29:38;42.74;34.77;57.14;;
76382;Laerm;65202;52.520;10.528;2023-06-10T03:32:06;41.37;34.53;54.89;;
76382;Laerm;65202;52.520;10.528;2023-06-10T03:34:33;42.73;34.47;57.21;;
76382;Laerm;65202;52.520;10.528;2023-06-10T03:37:01;47.30;34.62;62.43;;
76382;Laerm;65202;52.520;10.528;2023-06-10T03:39:28;49.36;34.85;64.10;;
76382;Laerm;65202;52.520;10.528;2023-06-10T03:41:56;48.19;35.92;63.17;;
76382;Laerm;65202;52.520;10.528;2023-06-10T03:44:26;50.24;34.81;65.68;;
76382;Laerm;65202;52.520;10.528;2023-06-10T03:46:56;47.08;33.87;64.42;;
76382;Laerm;65202;52.520;10.528;2023-06-10T03:49:24;41.30;33.91;53.02;;
76382;Laerm;65202;52.520;10.528;2023-06-10T03:51:53;41.20;34.00;53.11;;
76382;Laerm;65202;52.520;10.528;2023-06-10T03:54:21;47.20;34.39;64.34;;
76382;Laerm;65202;52.520;10.528;2023-06-10T03:56:49;51.05;34.63;63.82;;
76382;Laerm;65202;52.520;10.528;2023-06-10T03:59:16;50.66;34.66;65.88;;
76382;Laerm;65202;52.520;10.528;2023-06-10T04:01:43;51.37;34.01;66.59;;
76382;Laerm;65202;52.520;10.528;2023-06-10T04:04:14;52.27;34.94;67.13;;
76382;Laerm;65202;52.520;10.528;2023-06-10T04:06:43;47.37;34.52;62.57;;
76382;Laerm;65202;52.520;10.528;2023-06-10T04:09:12;43.72;34.45;67.24;;
76382;Laerm;65202;52.520;10.528;2023-06-10T04:11:39;42.62;34.47;56.84;;
76382;Laerm;65202;52.520;10.528;2023-06-10T04:14:08;49.76;34.34;63.60;;
76382;Laerm;65202;52.520;10.528;2023-06-10T04:16:35;45.97;35.07;62.04;;
76382;Laerm;65202;52.520;10.528;2023-06-10T04:19:03;46.12;34.28;64.48;;
76382;Laerm;65202;52.520;10.528;2023-06-10T04:21:30;49.62;34.71;63.99;;
76382;Laerm;65202;52.520;10.528;2023-06-10T04:23:57;50.03;34.50;69.49;;
76382;Laerm;65202;52.520;10.528;2023-06-10T04:26:25;48.96;34.88;63.40;;
76382;Laerm;65202;52.520;10.528;2023-06-10T04:28:52;49.58;35.27;64.81;;
76382;Laerm;65202;52.520;10.528;2023-06-10T04:31:20;48.98;35.17;63.13;;
76382;Laerm;65202;52.520;10.528;2023-06-10T04:33:47;47.89;35.07;63.11;;
76382;Laerm;65202;52.520;10.528;2023-06-10T04:36:15;47.38;34.85;63.63;;
76382;Laerm;65202;52.520;10.528;2023-06-10T04:38:42;46.30;35.76;65.11;;
76382;Laerm;65202;52.520;10.528;2023-06-10T04:41:10;47.61;34.89;64.79;;
76382;Laerm;65202;52.520;10.528;2023-06-10T04:43:38;45.01;34.71;62.43;;
76382;Laerm;65202;52.520;10.528;2023-06-10T04:46:05;48.64;35.47;66.95;;
76382;Laerm;65202;52.520;10.528;2023-06-10T04:48:35;50.27;34.84;67.03;;
76382;Laerm;65202;52.520;10.528;2023-06-10T04:51:03;50.21;34.84;65.33;;
76382;Laerm;65202;52.520;10.528;2023-06-10T04:53:30;51.70;34.74;69.36;;
76382;Laerm;65202;52.520;10.528;2023-06-10T04:55:57;49.42;35.10;64.72;;
76382;Laerm;65202;52.520;10.528;2023-06-10T04:58:25;47.30;34.64;61.63;;
76382;Laerm;65202;52.520;10.528;2023-06-10T05:00:52;49.07;34.60;65.53;;
76382;Laerm;65202;52.520;10.528;2023-06-10T05:03:19;50.45;35.14;65.50;;
76382;Laerm;65202;52.520;10.528;2023-06-10T05:05:46;47.28;34.86;62.99;;
76382;Laerm;65202;52.520;10.528;2023-06-10T05:08:14;49.14;34.14;62.94;;
76382;Laerm;65202;52.520;10.528;2023-06-10T05:10:41;49.44;34.91;64.88;;
76382;Laerm;65202;52.520;10.528;2023-06-10T05:13:08;43.95;34.81;59.41;;
76382;Laerm;65202;52.520;10.528;2023-06-10T05:15:35;47.72;35.34;63.02;;
76382;Laerm;65202;52.520;10.528;2023-06-10T05:18:04;44.43;34.72;60.37;;
76382;Laerm;65202;52.520;10.528;2023-06-10T05:20:31;40.99;34.08;53.75;;
76382;Laerm;65202;52.520;10.528;2023-06-10T05:22:58;45.50;34.28;61.15;;
76382;Laerm;65202;52.520;10.528;2023-06-10T05:25:28;47.66;34.54;65.22;;
76382;Laerm;65202;52.520;10.528;2023-06-10T05:27:57;49.44;34.87;66.90;;
76382;Laerm;65202;52.520;10.528;2023-06-10T05:30:24;47.82;34.69;67.11;;
76382;Laerm;65202;52.520;10.528;2023-06-10T05:32:52;49.21;34.42;63.62;;
76382;Laerm;65202;52.520;10.528;2023-06-10T05:35:20;45.33;34.42;61.58;;
76382;Laerm;65202;52.520;10.528;2023-06-10T05:37:47;51.61;35.09;64.32;;
76382;Laerm;65202;52.520;10.528;2023-06-10T05:40:15;50.45;34.57;67.88;;
76382;Laerm;65202;52.520;10.528;2023-06-10T05:42:42;47.33;34.32;62.78;;
76382;Laerm;65202;52.520;10.528;2023-06-10T05:45:10;44.69;34.97;58.33;;
76382;Laerm;65202;52.520;10.528;2023-06-10T05:47:37;43.18;34.43;56.84;;
76382;Laerm;65202;52.520;10.528;2023-06-10T05:50:05;43.79;33.79;59.97;;
76382;Laerm;65202;52.520;10.528;2023-06-10T05:52:35;48.10;34.46;64.36;;
76382;Laerm;65202;52.520;10.528;2023-06-10T05:55:03;48.19;34.44;64.82;;
76382;Laerm;65202;52.520;10.528;2023-06-10T05:57:30;52.60;35.63;67.27;;
76382;Laerm;65202;52.520;10.528;2023-06-10T05:59:58;50.18;35.33;65.70;;
76382;Laerm;65202;52.520;10.528;2023-06-10T06:02:25;49.25;35.37;65.26;;
76382;Laerm;65202;52.520;10.528;2023-06-10T06:04:52;50.66;35.23;65.45;;
76382;Laerm;65202;52.520;10.528;2023-06-10T06:07:20;51.12;35.13;63.71;;
76382;Laerm;65202;52.520;10.528;2023-06-10T06:09:48;47.34;34.94;61.98;;
76382;Laerm;65202;52.520;10.528;2023-06-10T06:12:15;48.87;35.28;66.02;;
76382;Laerm;65202;52.520;10.528;2023-06-10T06:14:42;47.22;35.26;62.94;;
76382;Laerm;65202;52.520;10.528;2023-06-10T06:17:10;46.85;35.00;62.68;;
76382;Laerm;65202;52.520;10.528;2023-06-10T06:19:38;46.59;37.43;67.29;;
76382;Laerm;65202;52.520;10.528;2023-06-10T06:22:05;52.82;35.73;71.70;;
76382;Laerm;65202;52.520;10.528;2023-06-10T06:24:32;51.99;35.36;77.05;;
76382;Laerm;65202;52.520;10.528;2023-06-10T06:27:00;50.51;34.48;65.28;;
76382;Laerm;65202;52.520;10.528;2023-06-10T06:29:27;47.50;35.16;62.54;;
76382;Laerm;65202;52.520;10.528;2023-06-10T06:31:57;47.05;34.69;59.14;;
76382;Laerm;65202;52.520;10.528;2023-06-10T06:34:24;46.32;34.46;63.40;;
76382;Laerm;65202;52.520;10.528;2023-06-10T06:36:52;49.08;34.71;66.10;;
76382;Laerm;65202;52.520;10.528;2023-06-10T06:39:19;50.15;34.16;66.91;;
76382;Laerm;65202;52.520;10.528;2023-06-10T06:41:46;48.83;35.57;61.58;;
76382;Laerm;65202;52.520;10.528;2023-06-10T06:44:14;48.22;35.09;62.99;;
76382;Laerm;65202;52.520;10.528;2023-06-10T06:46:41;58.97;34.63;69.60;;
76382;Laerm;65202;52.520;10.528;2023-06-10T06:49:08;53.17;35.58;69.94;;
76382;Laerm;65202;52.520;10.528;2023-06-10T06:51:35;49.21;35.29;65.80;;
76382;Laerm;65202;52.520;10.528;2023-06-10T06:54:04;47.28;34.86;63.65;;
76382;Laerm;65202;52.520;10.528;2023-06-10T06:56:32;49.47;35.62;63.48;;
76382;Laerm;65202;52.520;10.528;2023-06-10T06:58:59;52.54;35.03;65.11;;
76382;Laerm;65202;52.520;10.528;2023-06-10T07:01:27;49.79;35.11;64.42;;
76382;Laerm;65202;52.520;10.528;2023-06-10T07:03:54;54.75;34.97;71.20;;
76382;Laerm;65202;52.520;10.528;2023-06-10T07:06:21;50.42;35.54;68.50;;
76382;Laerm;65202;52.520;10.528;2023-06-10T07:08:49;49.60;35.59;62.56;;
76382;Laerm;65202;52.520;10.528;2023-06-10T07:11:16;52.95;35.45;65.82;;
76382;Laerm;65202;52.520;10.528;2023-06-10T07:13:44;51.16;34.86;67.43;;
76382;Laerm;65202;52.520;10.528;2023-06-10T07:16:12;47.71;35.17;69.58;;
76382;Laerm;65202;52.520;10.528;2023-06-10T07:18:39;49.67;35.06;63.17;;
76382;Laerm;65202;52.520;10.528;2023-06-10T07:21:06;50.49;35.97;66.79;;
76382;Laerm;65202;52.520;10.528;2023-06-10T07:23:33;50.70;35.49;73.32;;
76382;Laerm;65202;52.520;10.528;2023-06-10T07:26:00;48.71;34.93;64.38;;
76382;Laerm;65202;52.520;10.528;2023-06-10T07:28:28;49.82;34.17;64.91;;
76382;Laerm;65202;52.520;10.528;2023-06-10T07:30:55;53.36;36.03;70.72;;
76382;Laerm;65202;52.520;10.528;2023-06-10T07:33:22;49.32;35.53;64.33;;
76382;Laerm;65202;52.520;10.528;2023-06-10T07:35:50;52.54;35.38;68.82;;
76382;Laerm;65202;52.520;10.528;2023-06-10T07:38:17;48.07;34.77;63.92;;
76382;Laerm;65202;52.520;10.528;2023-06-10T07:40:45;50.19;35.23;65.43;;
76382;Laerm;65202;52.520;10.528;2023-06-10T07:43:12;49.20;34.41;69.53;;
76382;Laerm;65202;52.520;10.528;2023-06-10T07:45:40;50.19;34.45;65.07;;
76382;Laerm;65202;52.520;10.528;2023-06-10T07:48:08;48.89;34.17;67.19;;
76382;Laerm;65202;52.520;10.528;2023-06-10T07:50:35;46.16;34.16;62.76;;
76382;Laerm;65202;52.520;10.528;2023-06-10T07:53:04;50.64;34.85;68.57;;
76382;Laerm;65202;52.520;10.528;2023-06-10T07:55:31;49.77;34.80;65.72;;
76382;Laerm;65202;52.520;10.528;2023-06-10T07:57:58;46.98;34.30;63.05;;
76382;Laerm;65202;52.520;10.528;2023-06-10T08:00:25;47.88;34.33;64.64;;
76382;Laerm;65202;52.520;10.528;2023-06-10T08:02:53;47.72;34.31;66.17;;
76382;Laerm;65202;52.520;10.528;2023-06-10T08:05:20;49.44;34.83;67.00;;
76382;Laerm;65202;52.520;10.528;2023-06-10T08:07:48;47.66;34.90;62.10;;
76382;Laerm;65202;52.520;10.528;2023-06-10T08:10:15;46.51;34.83;62.06;;
76382;Laerm;65202;52.520;10.528;2023-06-10T08:12:42;45.69;35.58;60.07;;
76382;Laerm;65202;52.520;10.528;2023-06-10T08:15:10;47.16;34.48;63.68;;
76382;Laerm;65202;52.520;10.528;2023-06-10T08:17:38;50.63;35.21;66.50;;
76382;Laerm;65202;52.520;10.528;2023-06-10T08:20:06;52.25;35.89;65.75;;
76382;Laerm;65202;52.520;10.528;2023-06-10T08:22:34;53.78;36.84;67.03;;
76382;Laerm;65202;52.520;10.528;2023-06-10T08:25:01;49.26;35.88;68.32;;
76382;Laerm;65202;52.520;10.528;2023-06-10T08:27:28;50.77;35.32;67.58;;
76382;Laerm;65202;52.520;10.528;2023-06-10T08:29:56;51.03;34.83;68.22;;
76382;Laerm;65202;52.520;10.528;2023-06-10T08:32:23;48.31;34.01;60.87;;
76382;Laerm;65202;52.520;10.528;2023-06-10T08:34:50;52.06;35.39;66.93;;
76382;Laerm;65202;52.520;10.528;2023-06-10T08:37:17;49.95;35.34;64.81;;
76382;Laerm;65202;52.520;10.528;2023-06-10T08:39:45;50.82;34.72;67.12;;
76382;Laerm;65202;52.520;10.528;2023-06-10T08:45:16;47.32;34.46;60.76;;
76382;Laerm;65202;52.520;10.528;2023-06-10T08:47:49;50.31;35.40;63.67;;
76382;Laerm;65202;52.520;10.528;2023-06-10T08:50:21;49.49;34.51;67.34;;
76382;Laerm;65202;52.520;10.528;2023-06-10T08:52:54;60.54;34.83;88.71;;
76382;Laerm;65202;52.520;10.528;2023-06-10T08:55:35;48.13;37.28;60.41;;
76382;Laerm;65202;52.520;10.528;2023-06-10T08:58:04;49.15;36.59;65.25;;
76382;Laerm;65202;52.520;10.528;2023-06-10T09:00:32;47.09;35.18;59.88;;
76382;Laerm;65202;52.520;10.528;2023-06-10T09:02:59;45.96;36.40;58.99;;
76382;Laerm;65202;52.520;10.528;2023-06-10T09:05:34;45.10;36.46;61.25;;
76382;Laerm;65202;52.520;10.528;2023-06-10T09:08:05;46.94;36.17;58.85;;
76382;Laerm;65202;52.520;10.528;2023-06-10T09:10:33;47.31;36.34;59.94;;
76382;Laerm;65202;52.520;10.528;2023-06-10T09:13:01;47.92;34.80;62.21;;
76382;Laerm;65202;52.520;10.528;2023-06-10T09:15:28;49.24;34.87;66.85;;
76382;Laerm;65202;52.520;10.528;2023-06-10T09:17:56;49.39;34.56;65.61;;
76382;Laerm;65202;52.520;10.528;2023-06-10T09:20:23;50.05;35.00;65.30;;
76382;Laerm;65202;52.520;10.528;2023-06-10T09:22:51;51.84;34.38;65.74;;
76382;Laerm;65202;52.520;10.528;2023-06-10T09:25:18;50.03;34.48;66.17;;
76382;Laerm;65202;52.520;10.528;2023-06-10T09:27:48;53.23;34.33;67.67;;
76382;Laerm;65202;52.520;10.528;2023-06-10T09:30:34;48.07;36.73;68.18;;
76382;Laerm;65202;52.520;10.528;2023-06-10T09:33:10;50.34;34.21;66.95;;
76382;Laerm;65202;52.520;10.528;2023-06-10T09:35:48;50.08;34.45;64.94;;
76382;Laerm;65202;52.520;10.528;2023-06-10T09:38:20;50.25;34.22;64.08;;
76382;Laerm;65202;52.520;10.528;2023-06-10T09:40:53;52.71;35.25;68.08;;
76382;Laerm;65202;52.520;10.528;2023-06-10T09:43:21;48.25;35.48;61.97;;
76382;Laerm;65202;52.520;10.528;2023-06-10T09:45:51;49.27;35.24;63.84;;
76382;Laerm;65202;52.520;10.528;2023-06-10T09:48:21;48.52;36.39;59.02;;
76382;Laerm;65202;52.520;10.528;2023-06-10T09:50:50;50.62;35.70;63.10;;
76382;Laerm;65202;52.520;10.528;2023-06-10T09:53:17;55.47;40.16;72.69;;
76382;Laerm;65202;52.520;10.528;2023-06-10T09:55:45;52.05;37.94;66.16;;
76382;Laerm;65202;52.520;10.528;2023-06-10T09:58:14;55.67;44.20;65.80;;
76382;Laerm;65202;52.520;10.528;2023-06-10T10:00:41;54.17;42.86;65.95;;
76382;Laerm;65202;52.520;10.528;2023-06-10T10:03:08;56.59;39.38;65.52;;
76382;Laerm;65202;52.520;10.528;2023-06-10T10:05:35;54.18;40.74;70.24;;
76382;Laerm;65202;52.520;10.528;2023-06-10T10:08:03;51.83;41.79;63.88;;
76382;Laerm;65202;52.520;10.528;2023-06-10T10:10:31;48.80;36.85;62.59;;
76382;Laerm;65202;52.520;10.528;2023-06-10T10:12:58;51.27;34.90;65.26;;
76382;Laerm;65202;52.520;10.528;2023-06-10T10:15:32;51.35;36.87;72.80;;
76382;Laerm;65202;52.520;10.528;2023-06-10T10:18:09;49.90;33.97;63.49;;
76382;Laerm;65202;52.520;10.528;2023-06-10T10:20:46;51.05;34.70;69.75;;
76382;Laerm;65202;52.520;10.528;2023-06-10T10:23:22;48.77;35.10;62.37;;
76382;Laerm;65202;52.520;10.528;2023-06-10T10:25:54;46.24;34.50;59.02;;
76382;Laerm;65202;52.520;10.528;2023-06-10T10:28:25;51.10;34.87;64.52;;
76382;Laerm;65202;52.520;10.528;2023-06-10T10:31:03;50.08;39.86;64.13;;
76382;Laerm;65202;52.520;10.528;2023-06-10T10:34:01;47.83;34.82;60.89;;
76382;Laerm;65202;52.520;10.528;2023-06-10T10:36:30;49.33;37.28;63.61;;
76382;Laerm;65202;52.520;10.528;2023-06-10T10:38:59;49.24;36.59;65.03;;
76382;Laerm;65202;52.520;10.528;2023-06-10T10:41:31;51.38;35.16;69.64;;
76382;Laerm;65202;52.520;10.528;2023-06-10T10:44:00;49.06;34.28;62.20;;
76382;Laerm;65202;52.520;10.528;2023-06-10T10:46:29;48.62;34.46;63.02;;
76382;Laerm;65202;52.520;10.528;2023-06-10T10:48:58;50.20;37.21;64.62;;
76382;Laerm;65202;52.520;10.528;2023-06-10T10:51:34;48.62;34.81;64.17;;
76382;Laerm;65202;52.520;10.528;2023-06-10T10:54:14;46.79;34.97;60.40;;
76382;Laerm;65202;52.520;10.528;2023-06-10T10:57:11;47.77;35.13;58.27;;
76382;Laerm;65202;52.520;10.528;2023-06-10T11:02:32;47.55;36.39;61.66;;
76382;Laerm;65202;52.520;10.528;2023-06-10T11:05:01;48.87;34.87;65.50;;
76382;Laerm;65202;52.520;10.528;2023-06-10T11:07:31;47.26;37.47;56.49;;
76382;Laerm;65202;52.520;10.528;2023-06-10T11:10:09;49.47;34.53;62.07;;
76382;Laerm;65202;52.520;10.528;2023-06-10T11:15:13;51.21;37.04;64.29;;
76382;Laerm;65202;52.520;10.528;2023-06-10T11:18:11;48.21;35.08;63.88;;
76382;Laerm;65202;52.520;10.528;2023-06-10T11:31:44;49.62;40.64;62.23;;
76382;Laerm;65202;52.520;10.528;2023-06-10T11:34:13;48.52;36.42;66.09;;
76382;Laerm;65202;52.520;10.528;2023-06-10T11:36:42;47.15;37.08;61.80;;
76382;Laerm;65202;52.520;10.528;2023-06-10T11:39:12;48.01;36.59;62.15;;
76382;Laerm;65202;52.520;10.528;2023-06-10T11:41:39;46.29;36.06;59.77;;
76382;Laerm;65202;52.520;10.528;2023-06-10T11:44:13;48.87;35.30;63.69;;
76382;Laerm;65202;52.520;10.528;2023-06-10T11:46:44;46.02;35.74;67.65;;
76382;Laerm;65202;52.520;10.528;2023-06-10T11:49:12;44.83;36.64;57.65;;
76382;Laerm;65202;52.520;10.528;2023-06-10T11:51:41;44.08;34.76;61.56;;
76382;Laerm;65202;52.520;10.528;2023-06-10T11:54:15;49.08;35.26;62.03;;
76382;Laerm;65202;52.520;10.528;2023-06-10T11:56:43;44.98;35.12;56.36;;
76382;Laerm;65202;52.520;10.528;2023-06-10T11:59:10;48.51;34.79;64.38;;
76382;Laerm;65202;52.520;10.528;2023-06-10T12:01:45;48.79;35.39;63.62;;
76382;Laerm;65202;52.520;10.528;2023-06-10T12:04:15;50.92;37.00;77.46;;
76382;Laerm;65202;52.520;10.528;2023-06-10T12:06:49;51.00;35.40;65.14;;
76382;Laerm;65202;52.520;10.528;2023-06-10T12:09:34;50.87;37.85;65.29;;
76382;Laerm;65202;52.520;10.528;2023-06-10T12:12:04;52.71;37.97;68.86;;
76382;Laerm;65202;52.520;10.528;2023-06-10T12:14:55;50.72;36.20;66.38;;
76382;Laerm;65202;52.520;10.528;2023-06-10T12:17:36;52.24;38.62;65.27;;
76382;Laerm;65202;52.520;10.528;2023-06-10T12:20:23;52.83;37.50;64.90;;
76382;Laerm;65202;52.520;10.528;2023-06-10T12:22:51;50.36;36.50;65.61;;
76382;Laerm;65202;52.520;10.528;2023-06-10T12:25:28;51.57;36.90;64.11;;
76382;Laerm;65202;52.520;10.528;2023-06-10T12:27:57;50.65;34.52;64.23;;
76382;Laerm;65202;52.520;10.528;2023-06-10T12:30:27;50.34;34.67;66.44;;
76382;Laerm;65202;52.520;10.528;2023-06-10T12:32:55;51.22;36.06;64.92;;
76382;Laerm;65202;52.520;10.528;2023-06-10T12:35:27;52.06;35.20;70.38;;
76382;Laerm;65202;52.520;10.528;2023-06-10T12:38:04;51.76;40.72;68.24;;
76382;Laerm;65202;52.520;10.528;2023-06-10T12:40:38;51.82;39.82;64.78;;
76382;Laerm;65202;52.520;10.528;2023-06-10T12:43:07;52.32;38.39;71.68;;
76382;Laerm;65202;52.520;10.528;2023-06-10T12:45:37;51.85;36.47;71.53;;
76382;Laerm;65202;52.520;10.528;2023-06-10T12:48:23;54.00;36.72;75.87;;
76382;Laerm;65202;52.520;10.528;2023-06-10T12:50:56;51.96;36.17;66.13;;
76382;Laerm;65202;52.520;10.528;2023-06-10T12:53:25;51.24;36.16;67.58;;
76382;Laerm;65202;52.520;10.528;2023-06-10T12:55:55;47.24;36.14;59.76;;
76382;Laerm;65202;52.520;10.528;2023-06-10T12:58:23;49.06;36.37;60.48;;
76382;Laerm;65202;52.520;10.528;2023-06-10T13:00:50;50.46;39.65;58.95;;
76382;Laerm;65202;52.520;10.528;2023-06-10T13:03:20;51.41;38.22;62.65;;
76382;Laerm;65202;52.520;10.528;2023-06-10T13:05:47;50.85;39.87;64.15;;
76382;Laerm;65202;52.520;10.528;2023-06-10T13:08:15;47.27;38.15;61.71;;
76382;Laerm;65202;52.520;10.528;2023-06-10T13:10:42;47.79;37.36;62.65;;
76382;Laerm;65202;52.520;10.528;2023-06-10T13:13:10;53.42;39.50;66.46;;
76382;Laerm;65202;52.520;10.528;2023-06-10T13:15:37;50.37;34.37;67.44;;
76382;Laerm;65202;52.520;10.528;2023-06-10T13:18:09;50.23;34.54;68.53;;
76382;Laerm;65202;52.520;10.528;2023-06-10T13:20:36;43.69;34.89;57.22;;
76382;Laerm;65202;52.520;10.528;2023-06-10T13:23:04;49.49;35.46;64.49;;
76382;Laerm;65202;52.520;10.528;2023-06-10T13:25:31;50.82;38.24;65.48;;
76382;Laerm;65202;52.520;10.528;2023-06-10T13:27:59;47.54;36.35;59.15;;
76382;Laerm;65202;52.520;10.528;2023-06-10T13:30:26;46.38;37.57;56.30;;
76382;Laerm;65202;52.520;10.528;2023-06-10T13:32:54;48.20;36.52;61.92;;
76382;Laerm;65202;52.520;10.528;2023-06-10T13:35:21;47.58;37.99;59.09;;
76382;Laerm;65202;52.520;10.528;2023-06-10T13:37:49;46.42;37.99;58.05;;
76382;Laerm;65202;52.520;10.528;2023-06-10T13:40:16;47.31;38.21;61.48;;
76382;Laerm;65202;52.520;10.528;2023-06-10T13:42:43;47.02;36.81;58.40;;
76382;Laerm;65202;52.520;10.528;2023-06-10T13:45:11;46.90;37.30;58.63;;
76382;Laerm;65202;52.520;10.528;2023-06-10T13:47:39;48.31;34.74;62.02;;
76382;Laerm;65202;52.520;10.528;2023-06-10T13:50:07;48.17;35.32;64.01;;
76382;Laerm;65202;52.520;10.528;2023-06-10T13:52:34;49.03;36.11;60.59;;
76382;Laerm;65202;52.520;10.528;2023-06-10T13:55:02;47.58;34.82;60.93;;
76382;Laerm;65202;52.520;10.528;2023-06-10T13:57:29;50.38;35.90;63.42;;
76382;Laerm;65202;52.520;10.528;2023-06-10T13:59:56;52.79;36.27;77.00;;
76382;Laerm;65202;52.520;10.528;2023-06-10T14:02:24;50.81;36.42;69.42;;
76382;Laerm;65202;52.520;10.528;2023-06-10T14:04:51;49.82;35.31;65.01;;
76382;Laerm;65202;52.520;10.528;2023-06-10T14:07:18;48.22;36.48;61.51;;